Time;durP1;ratioP1;P1;durP2;ratioP2;P2;SDS_P1;SDS_P2;PMS_P1;PMS_P2;Temp;Humidity;BMP_temperature;BMP_pressure;BME280_temperature;BME280_humidity;BME280_pressure;Samples;Min_cycle;Max_cycle;Signal;HPM_P1;HPM_P2
2023/01/23 00:01:02;;;;;;;10.82;5.90;;;;;;;;;;5022839;28;20057;-84
2023/01/23 00:03:29;;;;;;;8.07;5.40;;;;;;;;;;5027137;28;20119;-83
2023/01/23 00:06:02;;;;;;;9.93;5.13;;;;;;;;;;5015237;28;20076;-83
2023/01/23 00:08:28;;;;;;;7.50;4.63;;;;;;;;;;5018648;28;20049;-83
2023/01/23 00:10:54;;;;;;;6.55;4.30;;;;;;;;;;5028913;28;20041;-83
2023/01/23 00:13:21;;;;;;;5.13;4.15;;;;;;;;;;5022155;28;20474;-83
2023/01/23 00:15:47;;;;;;;8.85;4.10;;;;;;;;;;5013698;28;20057;-83
2023/01/23 00:18:14;;;;;;;7.97;4.10;;;;;;;;;;5013435;28;20049;-84
2023/01/23 00:20:40;;;;;;;7.45;4.43;;;;;;;;;;5008909;28;20042;-83
2023/01/23 00:23:07;;;;;;;4.95;3.45;;;;;;;;;;5006097;28;20045;-83
2023/01/23 00:25:34;;;;;;;5.63;3.75;;;;;;;;;;5010674;28;20046;-83
2023/01/23 00:28:00;;;;;;;7.35;4.40;;;;;;;;;;5006139;28;20432;-83
2023/01/23 00:30:26;;;;;;;5.82;3.80;;;;;;;;;;5005193;28;20053;-84
2023/01/23 00:32:52;;;;;;;10.05;3.58;;;;;;;;;;5009781;28;20081;-83
2023/01/23 00:35:18;;;;;;;7.85;4.22;;;;;;;;;;5006778;28;20042;-83
2023/01/23 00:37:44;;;;;;;8.18;4.38;;;;;;;;;;5009122;28;20100;-83
2023/01/23 00:40:10;;;;;;;5.53;3.65;;;;;;;;;;5013548;28;20046;-83
2023/01/23 00:42:36;;;;;;;8.65;3.72;;;;;;;;;;5028604;28;20363;-83
2023/01/23 00:45:03;;;;;;;10.82;4.55;;;;;;;;;;5002658;28;20073;-83
2023/01/23 00:47:29;;;;;;;6.07;4.13;;;;;;;;;;5008443;28;20136;-83
2023/01/23 00:49:57;;;;;;;7.18;3.60;;;;;;;;;;5003198;28;20112;-83
2023/01/23 00:52:23;;;;;;;6.70;3.67;;;;;;;;;;5005505;28;20038;-84
2023/01/23 00:54:49;;;;;;;7.75;3.90;;;;;;;;;;5005390;28;20726;-83
2023/01/23 00:57:15;;;;;;;6.32;3.70;;;;;;;;;;5007716;28;20116;-83
2023/01/23 00:59:41;;;;;;;6.88;4.50;;;;;;;;;;5018029;28;20042;-82
2023/01/23 01:02:07;;;;;;;6.85;3.90;;;;;;;;;;5003229;28;20125;-83
2023/01/23 01:04:33;;;;;;;5.57;3.90;;;;;;;;;;5015392;28;21077;-83
2023/01/23 01:06:59;;;;;;;5.85;4.10;;;;;;;;;;5011548;28;20049;-82
2023/01/23 01:09:26;;;;;;;5.88;4.57;;;;;;;;;;4999021;28;20057;-82
2023/01/23 01:11:51;;;;;;;5.25;4.00;;;;;;;;;;5008227;28;20061;-83
2023/01/23 01:14:17;;;;;;;6.25;4.75;;;;;;;;;;5011065;28;20395;-83
2023/01/23 01:16:45;;;;;;;8.00;3.97;;;;;;;;;;5010027;28;20042;-83
2023/01/23 01:19:16;;;;;;;6.45;4.10;;;;;;;;;;5008702;28;20057;-83
2023/01/23 01:21:42;;;;;;;8.27;4.10;;;;;;;;;;5011032;28;20046;-83
2023/01/23 01:24:09;;;;;;;7.15;4.50;;;;;;;;;;5004441;28;20045;-83
2023/01/23 01:26:35;;;;;;;6.63;4.30;;;;;;;;;;5016052;28;20056;-83
2023/01/23 01:29:01;;;;;;;5.57;4.40;;;;;;;;;;5007634;28;20042;-83
2023/01/23 01:31:27;;;;;;;10.13;4.55;;;;;;;;;;5009000;28;20042;-84
2023/01/23 01:33:56;;;;;;;7.30;4.35;;;;;;;;;;5004729;28;20065;-83
2023/01/23 01:36:23;;;;;;;9.75;4.30;;;;;;;;;;5000684;28;20088;-83
2023/01/23 01:38:52;;;;;;;6.35;4.38;;;;;;;;;;5021596;28;20042;-83
2023/01/23 01:41:18;;;;;;;10.38;4.65;;;;;;;;;;5005980;28;20508;-83
2023/01/23 01:43:45;;;;;;;6.38;4.55;;;;;;;;;;5013437;28;20053;-83
2023/01/23 01:46:19;;;;;;;7.30;4.63;;;;;;;;;;5010349;28;20530;-82
2023/01/23 01:48:48;;;;;;;7.78;4.50;;;;;;;;;;5016538;28;20050;-84
2023/01/23 01:51:31;;;;;;;6.72;4.63;;;;;;;;;;5028503;28;20041;-83
2023/01/23 01:54:06;;;;;;;7.00;4.32;;;;;;;;;;5012077;28;20135;-83
2023/01/23 01:56:36;;;;;;;5.32;4.65;;;;;;;;;;5015316;28;20046;-83
2023/01/23 01:59:03;;;;;;;7.07;4.65;;;;;;;;;;5001764;28;20149;-83
2023/01/23 02:01:29;;;;;;;7.85;4.38;;;;;;;;;;5019702;28;20145;-84
2023/01/23 02:03:56;;;;;;;9.40;4.85;;;;;;;;;;5005015;28;20045;-83
2023/01/23 02:06:22;;;;;;;9.27;4.35;;;;;;;;;;5006121;28;20079;-83
2023/01/23 02:09:11;;;;;;;9.90;5.10;;;;;;;;;;5017078;28;20061;-83
2023/01/23 02:11:37;;;;;;;9.70;4.97;;;;;;;;;;4995133;28;20060;-83
2023/01/23 02:14:04;;;;;;;8.75;4.93;;;;;;;;;;5004480;28;20052;-83
2023/01/23 02:16:45;;;;;;;8.85;4.47;;;;;;;;;;5019311;28;20057;-83
2023/01/23 02:19:34;;;;;;;8.60;4.55;;;;;;;;;;5034211;28;20761;-83
2023/01/23 02:22:06;;;;;;;7.22;4.78;;;;;;;;;;4998154;28;20133;-83
2023/01/23 02:24:36;;;;;;;11.02;5.88;;;;;;;;;;5004040;28;20378;-83
2023/01/23 02:27:03;;;;;;;11.30;5.20;;;;;;;;;;5019022;28;20120;-83
2023/01/23 02:29:39;;;;;;;8.55;4.90;;;;;;;;;;5004523;28;20038;-84
2023/01/23 02:32:05;;;;;;;11.15;5.90;;;;;;;;;;5006726;28;20046;-83
2023/01/23 02:34:31;;;;;;;9.35;5.93;;;;;;;;;;5010474;28;20038;-83
2023/01/23 02:36:57;;;;;;;14.90;5.75;;;;;;;;;;5005699;28;20187;-83
2023/01/23 02:39:26;;;;;;;10.20;5.70;;;;;;;;;;5006257;28;20046;-84
2023/01/23 02:41:53;;;;;;;10.25;6.50;;;;;;;;;;5008360;28;20045;-84
2023/01/23 02:44:28;;;;;;;11.30;6.70;;;;;;;;;;5013105;28;20053;-84
2023/01/23 02:46:54;;;;;;;13.68;7.05;;;;;;;;;;5015856;28;20168;-83
2023/01/23 02:49:21;;;;;;;13.88;6.88;;;;;;;;;;5023250;28;20612;-85
2023/01/23 02:51:48;;;;;;;12.23;6.78;;;;;;;;;;4993065;28;20512;-84
2023/01/23 02:54:14;;;;;;;11.65;7.20;;;;;;;;;;5004724;28;20374;-84
2023/01/23 02:56:41;;;;;;;11.80;7.20;;;;;;;;;;5007797;28;20045;-82
2023/01/23 03:01:56;;;;;;;13.70;7.47;;;;;;;;;;5008496;28;20132;-84
2023/01/23 03:04:22;;;;;;;10.35;7.43;;;;;;;;;;5040986;28;20053;-83
2023/01/23 03:06:48;;;;;;;11.23;6.68;;;;;;;;;;5006506;28;20076;-83
2023/01/23 03:09:15;;;;;;;11.18;7.28;;;;;;;;;;5006919;28;20111;-83
2023/01/23 03:11:42;;;;;;;10.45;7.15;;;;;;;;;;5004522;28;20061;-84
2023/01/23 03:14:10;;;;;;;15.70;7.32;;;;;;;;;;5007880;28;20088;-83
2023/01/23 03:16:36;;;;;;;10.77;6.80;;;;;;;;;;5011923;28;20120;-83
2023/01/23 03:19:04;;;;;;;10.75;6.80;;;;;;;;;;5005834;28;20053;-83
2023/01/23 03:21:31;;;;;;;8.95;6.63;;;;;;;;;;5010398;28;20065;-84
2023/01/23 03:23:57;;;;;;;10.98;7.03;;;;;;;;;;5007346;28;20076;-82
2023/01/23 03:26:24;;;;;;;9.88;6.13;;;;;;;;;;5006069;28;20042;-83
2023/01/23 03:31:35;;;;;;;10.13;6.50;;;;;;;;;;5007895;28;20169;-83
2023/01/23 03:34:01;;;;;;;9.95;6.43;;;;;;;;;;5008896;28;20038;-83
2023/01/23 03:36:27;;;;;;;8.98;5.97;;;;;;;;;;5012245;28;20049;-82
2023/01/23 03:41:47;;;;;;;9.23;6.40;;;;;;;;;;5006755;28;20132;-83
2023/01/23 03:44:13;;;;;;;8.77;5.70;;;;;;;;;;5010242;28;20046;-83
2023/01/23 03:46:39;;;;;;;7.93;5.80;;;;;;;;;;5007940;28;20042;-82
2023/01/23 03:49:05;;;;;;;13.13;6.50;;;;;;;;;;5010559;28;20137;-83
2023/01/23 03:51:31;;;;;;;10.40;6.43;;;;;;;;;;5011266;28;20120;-83
2023/01/23 03:53:57;;;;;;;11.13;6.00;;;;;;;;;;5008741;28;20050;-83
2023/01/23 03:56:23;;;;;;;8.57;5.75;;;;;;;;;;5008554;28;20054;-83
2023/01/23 03:58:49;;;;;;;7.90;5.90;;;;;;;;;;5011276;28;20042;-83
2023/01/23 04:01:15;;;;;;;8.23;5.53;;;;;;;;;;5002761;28;20547;-83
2023/01/23 04:03:41;;;;;;;6.43;5.45;;;;;;;;;;5004872;28;20077;-82
2023/01/23 04:06:07;;;;;;;11.02;5.80;;;;;;;;;;5005374;28;20088;-83
2023/01/23 04:08:33;;;;;;;5.90;4.57;;;;;;;;;;5003846;28;20046;-82
2023/01/23 04:11:07;;;;;;;7.13;4.78;;;;;;;;;;5002892;28;20152;-83
2023/01/23 04:13:33;;;;;;;7.38;5.60;;;;;;;;;;5005090;28;20494;-82
2023/01/23 04:15:59;;;;;;;7.38;5.07;;;;;;;;;;5007181;28;20394;-82
2023/01/23 04:18:25;;;;;;;8.27;5.20;;;;;;;;;;5007323;28;20049;-83
2023/01/23 04:20:51;;;;;;;7.93;4.70;;;;;;;;;;5009139;28;20072;-81
2023/01/23 04:23:17;;;;;;;6.38;4.75;;;;;;;;;;5006751;28;20061;-82
2023/01/23 04:25:43;;;;;;;8.70;4.95;;;;;;;;;;5005908;28;20065;-82
2023/01/23 04:28:09;;;;;;;6.47;5.07;;;;;;;;;;5005334;28;20056;-82
2023/01/23 04:30:35;;;;;;;8.00;5.28;;;;;;;;;;5009082;28;20120;-82
2023/01/23 04:33:01;;;;;;;9.25;5.60;;;;;;;;;;5006537;28;20522;-81
2023/01/23 04:35:27;;;;;;;8.18;5.38;;;;;;;;;;5013323;28;20050;-82
2023/01/23 04:37:53;;;;;;;7.43;5.45;;;;;;;;;;5007649;28;20133;-82
2023/01/23 04:40:19;;;;;;;7.88;5.70;;;;;;;;;;5007131;28;20069;-83
2023/01/23 04:42:45;;;;;;;8.23;5.75;;;;;;;;;;5010747;28;20042;-82
2023/01/23 04:45:11;;;;;;;7.45;5.68;;;;;;;;;;5016143;28;20045;-82
2023/01/23 04:47:38;;;;;;;9.35;5.40;;;;;;;;;;5017071;28;20048;-83
2023/01/23 04:50:04;;;;;;;6.30;5.65;;;;;;;;;;5015873;28;20068;-83
2023/01/23 04:52:30;;;;;;;8.02;5.45;;;;;;;;;;5007374;28;20053;-83
2023/01/23 04:54:56;;;;;;;8.88;5.95;;;;;;;;;;5010002;28;20045;-83
2023/01/23 04:57:22;;;;;;;9.32;6.20;;;;;;;;;;5011410;28;20046;-83
2023/01/23 04:59:48;;;;;;;7.95;6.22;;;;;;;;;;5016349;28;20485;-83
2023/01/23 05:02:15;;;;;;;8.20;6.55;;;;;;;;;;5009814;28;20052;-83
2023/01/23 05:04:41;;;;;;;6.63;5.90;;;;;;;;;;5016888;28;20038;-83
2023/01/23 05:07:10;;;;;;;10.25;7.00;;;;;;;;;;5015761;28;20050;-82
2023/01/23 05:09:36;;;;;;;12.50;7.00;;;;;;;;;;5013050;28;20046;-82
2023/01/23 05:12:03;;;;;;;10.60;6.50;;;;;;;;;;5006363;28;20056;-82
2023/01/23 05:14:29;;;;;;;8.80;6.47;;;;;;;;;;5009111;28;20137;-83
2023/01/23 05:16:55;;;;;;;10.85;6.93;;;;;;;;;;5012278;28;20046;-83
2023/01/23 05:19:30;;;;;;;10.18;6.80;;;;;;;;;;5009649;28;20081;-82
2023/01/23 05:21:55;;;;;;;14.60;6.63;;;;;;;;;;5012715;28;20041;-83
2023/01/23 05:24:22;;;;;;;12.23;7.20;;;;;;;;;;5007843;28;20374;-83
2023/01/23 05:26:50;;;;;;;11.18;6.28;;;;;;;;;;5012801;28;20048;-82
2023/01/23 05:29:16;;;;;;;10.55;6.88;;;;;;;;;;5000694;28;20056;-83
2023/01/23 05:31:42;;;;;;;9.77;6.30;;;;;;;;;;5015894;28;20045;-82
2023/01/23 05:34:08;;;;;;;12.43;6.65;;;;;;;;;;5011974;28;20053;-83
2023/01/23 05:36:34;;;;;;;10.25;6.10;;;;;;;;;;5019064;28;20038;-83
2023/01/23 05:39:00;;;;;;;9.65;6.20;;;;;;;;;;5008702;28;20050;-83
2023/01/23 05:41:29;;;;;;;9.77;6.25;;;;;;;;;;5008608;28;20046;-83
2023/01/23 05:43:55;;;;;;;10.90;6.28;;;;;;;;;;5006382;28;20390;-83
2023/01/23 05:46:21;;;;;;;12.30;6.30;;;;;;;;;;5005030;28;20130;-83
2023/01/23 05:48:51;;;;;;;12.45;6.07;;;;;;;;;;5012084;28;20558;-83
2023/01/23 05:51:17;;;;;;;10.98;6.15;;;;;;;;;;5003009;28;20061;-82
2023/01/23 05:53:43;;;;;;;9.93;6.15;;;;;;;;;;5009427;28;20125;-83
2023/01/23 05:56:09;;;;;;;13.00;7.18;;;;;;;;;;4989674;28;20061;-83
2023/01/23 05:58:36;;;;;;;9.27;6.30;;;;;;;;;;5008646;28;20037;-83
2023/01/23 06:01:05;;;;;;;11.68;6.80;;;;;;;;;;5002779;28;20382;-82
2023/01/23 06:03:31;;;;;;;9.90;6.63;;;;;;;;;;5001823;28;20107;-82
2023/01/23 06:05:57;;;;;;;10.25;6.65;;;;;;;;;;5008102;28;20130;-82
2023/01/23 06:08:23;;;;;;;10.43;7.47;;;;;;;;;;5001142;28;20085;-82
2023/01/23 06:10:49;;;;;;;11.30;7.45;;;;;;;;;;5005615;28;20088;-82
2023/01/23 06:13:15;;;;;;;12.13;7.18;;;;;;;;;;5006067;28;20034;-83
2023/01/23 06:15:41;;;;;;;10.80;7.47;;;;;;;;;;5007631;28;20050;-83
2023/01/23 06:18:07;;;;;;;11.13;7.80;;;;;;;;;;5007402;28;20046;-83
2023/01/23 06:20:33;;;;;;;13.45;7.45;;;;;;;;;;5012422;28;20075;-83
2023/01/23 06:22:59;;;;;;;11.38;7.38;;;;;;;;;;5011585;28;20128;-83
2023/01/23 06:25:25;;;;;;;10.40;7.45;;;;;;;;;;5008957;28;20160;-83
2023/01/23 06:27:51;;;;;;;10.93;7.47;;;;;;;;;;5013403;28;20133;-83
2023/01/23 06:30:17;;;;;;;10.30;7.15;;;;;;;;;;5013331;28;20184;-83
2023/01/23 06:32:43;;;;;;;10.00;7.13;;;;;;;;;;5011510;28;20073;-83
2023/01/23 06:35:10;;;;;;;12.13;7.35;;;;;;;;;;5006229;28;20042;-83
2023/01/23 06:37:36;;;;;;;9.57;7.32;;;;;;;;;;5014108;28;20051;-83
2023/01/23 06:40:02;;;;;;;13.55;7.25;;;;;;;;;;5010813;28;20095;-83
2023/01/23 06:42:28;;;;;;;13.00;7.65;;;;;;;;;;5009463;28;20066;-83
2023/01/23 06:44:54;;;;;;;10.07;7.18;;;;;;;;;;5034272;28;20045;-82
2023/01/23 06:47:22;;;;;;;10.85;7.13;;;;;;;;;;5019862;28;20053;-83
2023/01/23 06:49:48;;;;;;;10.68;7.55;;;;;;;;;;5020022;28;20058;-83
2023/01/23 06:52:14;;;;;;;14.48;7.95;;;;;;;;;;5013616;28;20461;-83
2023/01/23 06:54:40;;;;;;;11.20;7.30;;;;;;;;;;5025035;28;20045;-84
2023/01/23 06:57:06;;;;;;;13.55;8.20;;;;;;;;;;5028443;28;20084;-84
2023/01/23 06:59:32;;;;;;;12.18;7.43;;;;;;;;;;5006056;28;20485;-83
2023/01/23 07:01:58;;;;;;;11.00;8.00;;;;;;;;;;5013996;28;20047;-84
2023/01/23 07:04:24;;;;;;;15.63;7.90;;;;;;;;;;5007428;28;20046;-84
2023/01/23 07:06:50;;;;;;;13.85;8.77;;;;;;;;;;5019120;28;20050;-83
2023/01/23 07:09:16;;;;;;;14.07;8.38;;;;;;;;;;5016188;28;20107;-83
2023/01/23 07:11:42;;;;;;;13.80;8.40;;;;;;;;;;5013712;28;20425;-83
2023/01/23 07:14:08;;;;;;;12.23;8.68;;;;;;;;;;5008803;28;20101;-84
2023/01/23 07:16:35;;;;;;;13.65;8.65;;;;;;;;;;5012138;28;20088;-83
2023/01/23 07:19:04;;;;;;;15.40;9.18;;;;;;;;;;5012590;28;20054;-83
2023/01/23 07:21:30;;;;;;;14.75;9.15;;;;;;;;;;5014745;28;20433;-84
2023/01/23 07:23:56;;;;;;;14.02;8.93;;;;;;;;;;4998855;28;20044;-84
2023/01/23 07:26:22;;;;;;;16.17;9.32;;;;;;;;;;5013289;28;20042;-84
2023/01/23 07:28:48;;;;;;;14.35;9.30;;;;;;;;;;5011362;28;20129;-83
2023/01/23 07:31:15;;;;;;;15.80;10.02;;;;;;;;;;5023856;28;20116;-84
2023/01/23 07:33:41;;;;;;;15.88;9.50;;;;;;;;;;5007199;28;20440;-84
2023/01/23 07:36:07;;;;;;;14.90;9.90;;;;;;;;;;4998488;28;20046;-82
2023/01/23 07:38:34;;;;;;;15.32;9.48;;;;;;;;;;5004582;28;20497;-83
2023/01/23 07:41:00;;;;;;;15.48;10.07;;;;;;;;;;5018360;28;20065;-83
2023/01/23 07:43:27;;;;;;;17.05;10.00;;;;;;;;;;5018999;28;20404;-83
2023/01/23 07:45:53;;;;;;;16.58;10.65;;;;;;;;;;5023681;28;20033;-82
2023/01/23 07:48:19;;;;;;;15.07;10.90;;;;;;;;;;5008737;28;20050;-84
2023/01/23 07:50:45;;;;;;;16.33;11.38;;;;;;;;;;5013883;28;20068;-84
2023/01/23 07:53:14;;;;;;;16.13;11.65;;;;;;;;;;5031174;28;20146;-83
2023/01/23 07:55:43;;;;;;;18.75;11.40;;;;;;;;;;4990126;28;20046;-83
2023/01/23 07:58:09;;;;;;;19.13;12.30;;;;;;;;;;5011829;28;20148;-83
2023/01/23 08:00:35;;;;;;;15.07;11.32;;;;;;;;;;5010298;28;20104;-83
2023/01/23 08:03:01;;;;;;;20.00;12.50;;;;;;;;;;5018984;28;20081;-84
2023/01/23 08:05:27;;;;;;;17.27;11.50;;;;;;;;;;5032938;28;20049;-83
2023/01/23 08:07:53;;;;;;;15.93;10.65;;;;;;;;;;5011117;28;20061;-82
2023/01/23 08:10:19;;;;;;;15.93;11.60;;;;;;;;;;4995654;28;20050;-83
2023/01/23 08:12:45;;;;;;;16.55;11.95;;;;;;;;;;4993452;28;20078;-84
2023/01/23 08:15:12;;;;;;;17.85;11.38;;;;;;;;;;4992458;28;20502;-83
2023/01/23 08:17:38;;;;;;;20.13;12.77;;;;;;;;;;5011018;28;20120;-83
2023/01/23 08:20:04;;;;;;;20.77;13.05;;;;;;;;;;5000676;28;20050;-83
2023/01/23 08:22:30;;;;;;;19.75;11.95;;;;;;;;;;4995034;28;20100;-84
2023/01/23 08:24:56;;;;;;;26.17;15.93;;;;;;;;;;5008351;28;20049;-84
2023/01/23 08:27:22;;;;;;;16.10;12.43;;;;;;;;;;5009726;28;20042;-84
2023/01/23 08:29:48;;;;;;;19.42;12.05;;;;;;;;;;5007510;28;20049;-83
2023/01/23 08:32:14;;;;;;;16.65;12.38;;;;;;;;;;5007223;28;20088;-84
2023/01/23 08:34:40;;;;;;;17.50;11.43;;;;;;;;;;5010741;28;20054;-83
2023/01/23 08:37:09;;;;;;;18.20;11.60;;;;;;;;;;5011815;28;20470;-83
2023/01/23 08:39:35;;;;;;;16.45;11.85;;;;;;;;;;5007130;28;20050;-84
2023/01/23 08:42:01;;;;;;;18.55;12.32;;;;;;;;;;5008634;28;20037;-84
2023/01/23 08:44:30;;;;;;;19.42;12.25;;;;;;;;;;5012945;28;20087;-84
2023/01/23 08:46:56;;;;;;;20.13;12.20;;;;;;;;;;5014576;28;20070;-85
2023/01/23 08:49:22;;;;;;;16.02;10.50;;;;;;;;;;5004622;28;20088;-84
2023/01/23 08:51:48;;;;;;;17.27;12.10;;;;;;;;;;5011987;28;20470;-84
2023/01/23 08:54:14;;;;;;;18.10;11.52;;;;;;;;;;5009052;28;20124;-83
2023/01/23 08:56:40;;;;;;;16.77;11.75;;;;;;;;;;5006871;28;20092;-84
2023/01/23 08:59:06;;;;;;;18.10;11.60;;;;;;;;;;5004699;28;20061;-83
2023/01/23 09:01:32;;;;;;;20.27;11.65;;;;;;;;;;5010600;28;20046;-84
2023/01/23 09:03:58;;;;;;;17.35;11.63;;;;;;;;;;5010940;28;20050;-84
2023/01/23 09:06:24;;;;;;;16.85;11.73;;;;;;;;;;5011843;28;20409;-82
2023/01/23 09:08:50;;;;;;;17.38;11.02;;;;;;;;;;5006907;28;20038;-83
2023/01/23 09:11:17;;;;;;;16.40;11.55;;;;;;;;;;5010965;28;20508;-83
2023/01/23 09:13:43;;;;;;;18.48;11.90;;;;;;;;;;5011477;28;20125;-83
2023/01/23 09:16:09;;;;;;;18.67;12.10;;;;;;;;;;5004978;28;20045;-83
2023/01/23 09:18:35;;;;;;;19.67;12.48;;;;;;;;;;5009609;28;20046;-84
2023/01/23 09:21:09;;;;;;;17.67;12.38;;;;;;;;;;5007695;28;20042;-83
2023/01/23 09:23:35;;;;;;;17.92;12.23;;;;;;;;;;5039852;28;20050;-84
2023/01/23 09:26:05;;;;;;;17.98;12.18;;;;;;;;;;5008263;28;20409;-83
2023/01/23 09:28:31;;;;;;;16.13;11.07;;;;;;;;;;5029394;28;20497;-83
2023/01/23 09:31:01;;;;;;;18.80;13.23;;;;;;;;;;5008841;28;20050;-83
2023/01/23 09:33:27;;;;;;;18.73;13.23;;;;;;;;;;5010160;28;20053;-84
2023/01/23 09:35:53;;;;;;;18.05;12.88;;;;;;;;;;5009776;28;20038;-83
2023/01/23 09:38:19;;;;;;;21.90;13.00;;;;;;;;;;5010614;28;20072;-84
2023/01/23 09:40:48;;;;;;;20.83;12.45;;;;;;;;;;5008262;28;20045;-84
2023/01/23 09:43:33;;;;;;;17.30;12.25;;;;;;;;;;5015266;28;20135;-84
2023/01/23 09:46:11;;;;;;;17.02;12.05;;;;;;;;;;5012467;28;20076;-83
2023/01/23 09:48:45;;;;;;;18.60;11.52;;;;;;;;;;5010346;28;20397;-83
2023/01/23 09:51:15;;;;;;;19.23;11.88;;;;;;;;;;5004590;28;20050;-83
2023/01/23 09:53:41;;;;;;;17.33;11.38;;;;;;;;;;5005828;28;20041;-83
2023/01/23 09:56:17;;;;;;;19.10;12.10;;;;;;;;;;4991516;28;20449;-83
2023/01/23 09:58:47;;;;;;;21.15;12.25;;;;;;;;;;5004160;28;20482;-84
2023/01/23 10:01:13;;;;;;;17.77;11.98;;;;;;;;;;4991816;28;20069;-83
2023/01/23 10:03:39;;;;;;;15.82;11.18;;;;;;;;;;5004156;28;20519;-84
2023/01/23 10:06:12;;;;;;;18.42;11.45;;;;;;;;;;5000350;28;20570;-84
2023/01/23 10:08:41;;;;;;;19.75;12.20;;;;;;;;;;5007661;28;20444;-84
2023/01/23 10:11:26;;;;;;;14.98;11.45;;;;;;;;;;5041374;28;20057;-82
2023/01/23 10:14:10;;;;;;;17.17;11.57;;;;;;;;;;4997343;28;20042;-84
2023/01/23 10:16:36;;;;;;;17.67;11.02;;;;;;;;;;5004777;28;20050;-83
2023/01/23 10:19:06;;;;;;;18.65;11.65;;;;;;;;;;5006407;28;20051;-83
2023/01/23 10:21:38;;;;;;;16.95;11.77;;;;;;;;;;5010529;28;20038;-81
2023/01/23 10:24:04;;;;;;;19.83;11.52;;;;;;;;;;4999474;28;20046;-82
2023/01/23 10:26:32;;;;;;;15.65;10.75;;;;;;;;;;5005113;28;20049;-83
2023/01/23 10:29:03;;;;;;;15.70;11.65;;;;;;;;;;5011173;28;20033;-83
2023/01/23 10:32:05;;;;;;;15.85;11.23;;;;;;;;;;5003934;28;20744;-84
2023/01/23 10:34:44;;;;;;;15.80;11.60;;;;;;;;;;4969431;28;20059;-84
2023/01/23 10:37:13;;;;;;;17.33;10.50;;;;;;;;;;5004114;28;20057;-83
2023/01/23 10:39:54;;;;;;;16.30;10.85;;;;;;;;;;5007870;28;20058;-83
2023/01/23 10:42:25;;;;;;;14.32;10.68;;;;;;;;;;5002689;28;20548;-82
2023/01/23 10:44:51;;;;;;;17.05;11.55;;;;;;;;;;5009735;28;20867;-83
2023/01/23 10:47:20;;;;;;;13.48;10.73;;;;;;;;;;5008108;28;20386;-84
2023/01/23 10:49:46;;;;;;;15.90;10.98;;;;;;;;;;5006174;28;20034;-83
2023/01/23 10:52:29;;;;;;;14.55;10.57;;;;;;;;;;5008579;28;20041;-82
2023/01/23 10:54:55;;;;;;;18.30;11.15;;;;;;;;;;5006863;28;20041;-83
2023/01/23 10:57:23;;;;;;;15.40;9.95;;;;;;;;;;5017372;28;20050;-83
2023/01/23 10:59:49;;;;;;;16.42;10.55;;;;;;;;;;5007679;28;20549;-84
2023/01/23 11:02:15;;;;;;;17.42;10.60;;;;;;;;;;5007185;28;20126;-82
2023/01/23 11:04:42;;;;;;;16.73;10.82;;;;;;;;;;5001505;28;20045;-83
2023/01/23 11:07:13;;;;;;;15.07;11.65;;;;;;;;;;5002933;28;20527;-82
2023/01/23 11:09:52;;;;;;;16.63;11.52;;;;;;;;;;5006808;28;20061;-83
2023/01/23 11:12:21;;;;;;;15.85;10.20;;;;;;;;;;5016034;28;20046;-82
2023/01/23 11:14:47;;;;;;;15.05;10.00;;;;;;;;;;5012238;28;20051;-83
2023/01/23 11:17:24;;;;;;;17.45;11.32;;;;;;;;;;5013604;28;20433;-84
2023/01/23 11:19:53;;;;;;;17.10;11.30;;;;;;;;;;5027979;28;20085;-83
2023/01/23 11:22:33;;;;;;;15.07;11.38;;;;;;;;;;5017258;28;20585;-83
2023/01/23 11:24:59;;;;;;;17.70;12.10;;;;;;;;;;5016019;28;20490;-84
2023/01/23 11:27:27;;;;;;;17.83;12.63;;;;;;;;;;5010680;28;20045;-83
2023/01/23 11:29:56;;;;;;;16.38;11.68;;;;;;;;;;5025711;28;20049;-82
2023/01/23 11:32:23;;;;;;;19.20;12.00;;;;;;;;;;5010944;28;20058;-84
2023/01/23 11:34:51;;;;;;;17.55;12.07;;;;;;;;;;5011668;28;20041;-83
2023/01/23 11:37:26;;;;;;;15.00;11.10;;;;;;;;;;5013488;28;20493;-83
2023/01/23 11:40:05;;;;;;;19.02;12.25;;;;;;;;;;5000953;28;20065;-82
2023/01/23 11:42:31;;;;;;;17.60;11.32;;;;;;;;;;4998932;28;21826;-81
2023/01/23 11:45:00;;;;;;;13.82;10.95;;;;;;;;;;5010694;28;20099;-81
2023/01/23 11:47:45;;;;;;;16.42;11.63;;;;;;;;;;5008222;28;20046;-83
2023/01/23 11:50:15;;;;;;;15.13;10.48;;;;;;;;;;5010603;28;20566;-82
2023/01/23 11:52:59;;;;;;;15.90;11.00;;;;;;;;;;5009272;28;20053;-81
2023/01/23 11:55:50;;;;;;;14.98;10.35;;;;;;;;;;4990141;28;20050;-80
2023/01/23 11:58:16;;;;;;;16.15;10.68;;;;;;;;;;5014167;28;20573;-82
2023/01/23 12:00:52;;;;;;;14.27;10.65;;;;;;;;;;5014703;28;20039;-82
2023/01/23 12:03:25;;;;;;;15.35;10.32;;;;;;;;;;5011044;28;20490;-84
2023/01/23 12:05:59;;;;;;;12.68;9.82;;;;;;;;;;5016854;28;20045;-83
2023/01/23 12:08:44;;;;;;;12.20;9.13;;;;;;;;;;5027508;28;20088;-83
2023/01/23 12:11:15;;;;;;;13.23;8.75;;;;;;;;;;5044954;28;20850;-81
2023/01/23 12:13:50;;;;;;;10.45;8.38;;;;;;;;;;5005919;28;20053;-82
2023/01/23 12:16:28;;;;;;;12.88;9.30;;;;;;;;;;5003739;28;20063;-82
2023/01/23 12:19:03;;;;;;;12.75;8.90;;;;;;;;;;5011571;28;20131;-83
2023/01/23 12:21:54;;;;;;;9.55;7.80;;;;;;;;;;5012120;28;20406;-83
2023/01/23 12:24:20;;;;;;;10.63;7.43;;;;;;;;;;5013114;28;20049;-83
2023/01/23 12:27:09;;;;;;;8.95;7.30;;;;;;;;;;5008393;28;20125;-83
2023/01/23 12:29:51;;;;;;;9.23;6.93;;;;;;;;;;5032208;28;20057;-83
2023/01/23 12:32:33;;;;;;;6.65;5.80;;;;;;;;;;5006201;28;20048;-83
2023/01/23 12:35:05;;;;;;;8.80;5.55;;;;;;;;;;5007055;28;20077;-83
2023/01/23 12:37:40;;;;;;;7.20;5.50;;;;;;;;;;5010587;28;20048;-82
2023/01/23 12:40:16;;;;;;;7.45;5.80;;;;;;;;;;5015034;28;20044;-82
2023/01/23 12:42:50;;;;;;;6.40;5.65;;;;;;;;;;5010180;28;20054;-80
2023/01/23 12:45:16;;;;;;;;;;;;;;;;;;5006431;28;20887;-83
2023/01/23 12:47:51;;;;;;;7.18;5.72;;;;;;;;;;5041149;28;19973;-83
2023/01/23 12:50:23;;;;;;;5.30;4.80;;;;;;;;;;5012525;28;20077;-82
2023/01/23 12:52:52;;;;;;;5.78;5.13;;;;;;;;;;5011591;28;20075;-83
2023/01/23 12:55:20;;;;;;;7.32;5.25;;;;;;;;;;5007488;28;20104;-81
2023/01/23 12:57:50;;;;;;;6.18;5.57;;;;;;;;;;5005837;28;20057;-82
2023/01/23 13:00:22;;;;;;;7.47;5.95;;;;;;;;;;5019931;28;20050;-82
2023/01/23 13:02:48;;;;;;;8.73;6.13;;;;;;;;;;5006038;28;20057;-82
2023/01/23 13:05:23;;;;;;;7.30;6.20;;;;;;;;;;5019748;28;20516;-81
2023/01/23 13:07:58;;;;;;;7.45;6.63;;;;;;;;;;5014635;28;20069;-81
2023/01/23 13:10:24;;;;;;;6.90;5.82;;;;;;;;;;5013305;28;20096;-81
2023/01/23 13:12:54;;;;;;;6.63;5.18;;;;;;;;;;4992576;28;20041;-81
2023/01/23 13:15:26;;;;;;;5.88;5.28;;;;;;;;;;5015101;28;20516;-83
2023/01/23 13:18:00;;;;;;;6.82;5.32;;;;;;;;;;5005320;28;20035;-83
2023/01/23 13:23:22;;;;;;;6.38;5.43;;;;;;;;;;5006773;28;20037;-84
2023/01/23 13:25:48;;;;;;;5.85;5.25;;;;;;;;;;5010662;28;20056;-84
2023/01/23 13:28:30;;;;;;;5.93;5.30;;;;;;;;;;5008070;28;20064;-84
2023/01/23 13:31:03;;;;;;;8.60;5.00;;;;;;;;;;5010926;28;20577;-84
2023/01/23 13:33:29;;;;;;;6.20;5.28;;;;;;;;;;5009386;28;20038;-84
2023/01/23 13:35:58;;;;;;;6.85;5.00;;;;;;;;;;5007589;28;20050;-84
2023/01/23 13:38:31;;;;;;;5.10;4.60;;;;;;;;;;5009559;28;20053;-84
2023/01/23 13:41:17;;;;;;;6.40;4.85;;;;;;;;;;5008092;28;20115;-85
2023/01/23 13:43:49;;;;;;;4.85;4.28;;;;;;;;;;5013185;28;20145;-84
2023/01/23 13:46:21;;;;;;;6.25;4.72;;;;;;;;;;5010512;28;20046;-85
2023/01/23 13:51:52;;;;;;;5.25;4.38;;;;;;;;;;5016880;28;20486;-85
2023/01/23 13:57:09;;;;;;;6.32;4.85;;;;;;;;;;5008098;28;20049;-83
2023/01/23 13:59:59;;;;;;;4.55;4.15;;;;;;;;;;5007403;28;20052;-83
2023/01/23 14:05:29;;;;;;;7.00;4.60;;;;;;;;;;5001104;28;20053;-83
2023/01/23 14:08:00;;;;;;;5.78;4.30;;;;;;;;;;5006465;28;20378;-84
2023/01/23 14:10:30;;;;;;;5.40;4.63;;;;;;;;;;5001547;28;20085;-84
2023/01/23 14:13:07;;;;;;;5.88;4.50;;;;;;;;;;5003403;28;20052;-84
2023/01/23 14:18:24;;;;;;;7.50;4.32;;;;;;;;;;5009950;28;20050;-84
2023/01/23 14:20:50;;;;;;;6.18;4.97;;;;;;;;;;5021715;28;20052;-83
2023/01/23 14:23:27;;;;;;;7.25;5.22;;;;;;;;;;5006395;28;20084;-83
2023/01/23 14:25:54;;;;;;;5.30;4.80;;;;;;;;;;5005364;28;20077;-84
2023/01/23 14:28:20;;;;;;;5.38;4.60;;;;;;;;;;5007241;28;20501;-83
2023/01/23 14:30:53;;;;;;;5.22;4.72;;;;;;;;;;5010091;28;20049;-84
2023/01/23 14:33:19;;;;;;;5.10;4.60;;;;;;;;;;5001902;28;20401;-83
2023/01/23 14:35:45;;;;;;;5.32;4.70;;;;;;;;;;5008925;28;20045;-83
2023/01/23 14:38:15;;;;;;;7.97;5.50;;;;;;;;;;5006002;28;20057;-82
2023/01/23 14:40:42;;;;;;;6.80;5.60;;;;;;;;;;5005055;28;20052;-83
2023/01/23 14:43:09;;;;;;;5.85;5.05;;;;;;;;;;5005786;28;20046;-81
2023/01/23 14:45:36;;;;;;;7.90;5.30;;;;;;;;;;5008727;28;20501;-82
2023/01/23 14:48:04;;;;;;;7.25;5.18;;;;;;;;;;5002882;28;20037;-83
2023/01/23 14:50:30;;;;;;;5.78;4.95;;;;;;;;;;5008423;28;20069;-84
2023/01/23 14:53:07;;;;;;;5.90;5.30;;;;;;;;;;5013503;28;20062;-84
2023/01/23 14:55:35;;;;;;;7.45;5.70;;;;;;;;;;5010368;28;20042;-84
2023/01/23 14:58:03;;;;;;;7.80;5.90;;;;;;;;;;5012301;28;20060;-81
2023/01/23 15:00:29;;;;;;;8.15;6.30;;;;;;;;;;5010846;28;20084;-80
2023/01/23 15:02:55;;;;;;;8.73;6.75;;;;;;;;;;5020084;28;20125;-80